sensor_id;sensor_type;location;lat;lon;timestamp;pressure;altitude;pressure_sealevel;temperature;humidity
16834;BME280;8533;48.426;10.868;2023-06-14T00:02:00;95631.06;;;12.71;65.54
16834;BME280;8533;48.426;10.868;2023-06-14T00:04:26;95679.25;;;12.95;65.61
16834;BME280;8533;48.426;10.868;2023-06-14T00:06:51;95682.34;;;13.02;65.62
16834;BME280;8533;48.426;10.868;2023-06-14T00:09:18;95665.84;;;12.91;65.92
16834;BME280;8533;48.426;10.868;2023-06-14T00:11:43;95690.19;;;13.07;65.49
16834;BME280;8533;48.426;10.868;2023-06-14T00:14:09;95667.69;;;12.96;65.18
16834;BME280;8533;48.426;10.868;2023-06-14T00:16:34;95685.72;;;13.08;65.09
16834;BME280;8533;48.426;10.868;2023-06-14T00:19:03;95667.13;;;13.04;64.82
16834;BME280;8533;48.426;10.868;2023-06-14T00:21:32;95676.78;;;13.14;64.58
16834;BME280;8533;48.426;10.868;2023-06-14T00:23:58;95640.66;;;12.90;65.12
16834;BME280;8533;48.426;10.868;2023-06-14T00:26:23;95603.28;;;12.65;65.79
16834;BME280;8533;48.426;10.868;2023-06-14T00:28:49;95627.88;;;12.74;66.02
16834;BME280;8533;48.426;10.868;2023-06-14T00:31:14;95629.50;;;12.70;66.59
16834;BME280;8533;48.426;10.868;2023-06-14T00:33:39;95670.56;;;12.94;67.01
16834;BME280;8533;48.426;10.868;2023-06-14T00:36:05;95691.31;;;12.96;67.01
16834;BME280;8533;48.426;10.868;2023-06-14T00:38:30;95677.66;;;12.94;67.81
16834;BME280;8533;48.426;10.868;2023-06-14T00:40:55;95623.81;;;12.52;69.02
16834;BME280;8533;48.426;10.868;2023-06-14T00:43:20;95679.28;;;12.85;68.85
16834;BME280;8533;48.426;10.868;2023-06-14T00:45:46;95673.28;;;12.74;69.20
16834;BME280;8533;48.426;10.868;2023-06-14T00:48:12;95674.84;;;12.75;69.77
16834;BME280;8533;48.426;10.868;2023-06-14T00:50:37;95617.31;;;12.35;70.51
16834;BME280;8533;48.426;10.868;2023-06-14T00:53:03;95665.75;;;12.63;69.26
16834;BME280;8533;48.426;10.868;2023-06-14T00:55:29;95656.84;;;12.53;70.28
16834;BME280;8533;48.426;10.868;2023-06-14T00:57:55;95684.88;;;12.68;70.80
16834;BME280;8533;48.426;10.868;2023-06-14T01:00:21;95677.03;;;12.63;70.41
16834;BME280;8533;48.426;10.868;2023-06-14T01:02:47;95652.69;;;12.42;71.23
16834;BME280;8533;48.426;10.868;2023-06-14T01:05:13;95606.13;;;12.09;70.97
16834;BME280;8533;48.426;10.868;2023-06-14T01:07:45;95670.53;;;12.45;71.20
16834;BME280;8533;48.426;10.868;2023-06-14T01:15:50;95682.59;;;12.41;72.40
16834;BME280;8533;48.426;10.868;2023-06-14T01:18:16;95617.69;;;12.03;73.15
16834;BME280;8533;48.426;10.868;2023-06-14T01:20:43;95680.22;;;12.45;72.28
16834;BME280;8533;48.426;10.868;2023-06-14T01:23:10;95636.25;;;12.16;72.82
16834;BME280;8533;48.426;10.868;2023-06-14T01:25:37;95664.00;;;12.33;72.86
16834;BME280;8533;48.426;10.868;2023-06-14T01:28:05;95629.16;;;12.17;72.41
16834;BME280;8533;48.426;10.868;2023-06-14T01:30:36;95561.94;;;11.67;73.12
16834;BME280;8533;48.426;10.868;2023-06-14T01:33:03;95639.66;;;12.22;72.94
16834;BME280;8533;48.426;10.868;2023-06-14T01:35:30;95676.59;;;12.31;73.59
16834;BME280;8533;48.426;10.868;2023-06-14T01:37:56;95658.28;;;12.20;73.45
16834;BME280;8533;48.426;10.868;2023-06-14T01:40:21;95672.41;;;12.30;73.46
16834;BME280;8533;48.426;10.868;2023-06-14T01:42:49;95674.00;;;12.31;73.27
16834;BME280;8533;48.426;10.868;2023-06-14T01:45:15;95678.19;;;12.32;73.52
16834;BME280;8533;48.426;10.868;2023-06-14T01:47:41;95643.09;;;12.02;74.13
16834;BME280;8533;48.426;10.868;2023-06-14T01:50:07;95647.53;;;12.12;73.88
16834;BME280;8533;48.426;10.868;2023-06-14T01:52:33;95612.22;;;11.84;74.42
16834;BME280;8533;48.426;10.868;2023-06-14T01:54:58;95668.75;;;12.20;73.77
16834;BME280;8533;48.426;10.868;2023-06-14T01:57:24;95671.41;;;12.15;74.59
16834;BME280;8533;48.426;10.868;2023-06-14T01:59:51;95648.59;;;12.01;75.30
16834;BME280;8533;48.426;10.868;2023-06-14T02:02:17;95537.13;;;11.24;75.12
16834;BME280;8533;48.426;10.868;2023-06-14T02:04:42;95649.41;;;11.96;75.33
16834;BME280;8533;48.426;10.868;2023-06-14T02:07:08;95602.00;;;11.62;75.75
16834;BME280;8533;48.426;10.868;2023-06-14T02:09:33;95674.31;;;12.04;75.71
16834;BME280;8533;48.426;10.868;2023-06-14T02:12:00;95605.19;;;11.59;75.77
16834;BME280;8533;48.426;10.868;2023-06-14T02:14:25;95645.22;;;11.85;76.08
16834;BME280;8533;48.426;10.868;2023-06-14T02:16:51;95645.50;;;11.73;78.13
16834;BME280;8533;48.426;10.868;2023-06-14T02:19:19;95596.53;;;11.43;76.60
16834;BME280;8533;48.426;10.868;2023-06-14T02:21:44;95637.38;;;11.70;78.41
16834;BME280;8533;48.426;10.868;2023-06-14T02:24:10;95686.13;;;11.86;78.90
16834;BME280;8533;48.426;10.868;2023-06-14T02:26:36;95672.25;;;11.80;79.54
16834;BME280;8533;48.426;10.868;2023-06-14T02:29:03;95664.88;;;11.72;78.38
16834;BME280;8533;48.426;10.868;2023-06-14T02:31:29;95651.25;;;11.55;78.86
16834;BME280;8533;48.426;10.868;2023-06-14T02:33:54;95658.59;;;11.53;78.81
16834;BME280;8533;48.426;10.868;2023-06-14T02:36:20;95609.63;;;11.18;79.82
16834;BME280;8533;48.426;10.868;2023-06-14T02:38:45;95670.41;;;11.51;80.78
16834;BME280;8533;48.426;10.868;2023-06-14T02:41:11;95652.03;;;11.35;80.90
16834;BME280;8533;48.426;10.868;2023-06-14T02:43:37;95658.84;;;11.31;80.66
16834;BME280;8533;48.426;10.868;2023-06-14T02:46:03;95674.31;;;11.33;81.09
16834;BME280;8533;48.426;10.868;2023-06-14T02:48:28;95674.81;;;11.30;80.72
16834;BME280;8533;48.426;10.868;2023-06-14T02:50:54;95534.16;;;10.39;81.52
16834;BME280;8533;48.426;10.868;2023-06-14T02:53:19;95640.75;;;11.04;83.09
16834;BME280;8533;48.426;10.868;2023-06-14T02:55:45;95662.25;;;11.22;82.53
16834;BME280;8533;48.426;10.868;2023-06-14T02:58:11;95651.78;;;11.17;84.32
16834;BME280;8533;48.426;10.868;2023-06-14T03:00:38;95660.16;;;11.19;83.46
16834;BME280;8533;48.426;10.868;2023-06-14T03:03:03;95591.50;;;10.66;82.88
16834;BME280;8533;48.426;10.868;2023-06-14T03:05:29;95679.81;;;11.26;82.41
16834;BME280;8533;48.426;10.868;2023-06-14T03:07:55;95664.06;;;11.11;82.03
16834;BME280;8533;48.426;10.868;2023-06-14T03:10:20;95642.34;;;11.00;82.57
16834;BME280;8533;48.426;10.868;2023-06-14T03:12:47;95665.66;;;11.17;81.43
16834;BME280;8533;48.426;10.868;2023-06-14T03:15:12;95676.91;;;11.23;82.43
16834;BME280;8533;48.426;10.868;2023-06-14T03:17:38;95684.75;;;11.28;83.36
16834;BME280;8533;48.426;10.868;2023-06-14T03:20:04;95680.31;;;11.28;81.91
16834;BME280;8533;48.426;10.868;2023-06-14T03:22:30;95704.41;;;11.35;82.38
16834;BME280;8533;48.426;10.868;2023-06-14T03:24:57;95605.66;;;10.80;82.04
16834;BME280;8533;48.426;10.868;2023-06-14T03:27:24;95668.53;;;11.16;82.08
16834;BME280;8533;48.426;10.868;2023-06-14T03:29:49;95673.00;;;11.25;81.17
16834;BME280;8533;48.426;10.868;2023-06-14T03:32:15;95664.88;;;11.27;81.64
16834;BME280;8533;48.426;10.868;2023-06-14T03:34:40;95706.53;;;11.54;82.95
16834;BME280;8533;48.426;10.868;2023-06-14T03:37:06;95686.38;;;11.49;83.23
16834;BME280;8533;48.426;10.868;2023-06-14T03:39:31;95686.88;;;11.46;83.38
16834;BME280;8533;48.426;10.868;2023-06-14T03:41:56;95663.28;;;11.36;82.94
16834;BME280;8533;48.426;10.868;2023-06-14T03:44:22;95706.00;;;11.46;84.23
16834;BME280;8533;48.426;10.868;2023-06-14T03:46:47;95680.06;;;11.30;84.70
16834;BME280;8533;48.426;10.868;2023-06-14T03:49:13;95693.66;;;11.17;85.29
16834;BME280;8533;48.426;10.868;2023-06-14T03:51:38;95650.72;;;11.07;85.46
16834;BME280;8533;48.426;10.868;2023-06-14T03:54:05;95692.91;;;11.26;85.75
16834;BME280;8533;48.426;10.868;2023-06-14T03:56:30;95683.97;;;11.22;85.45
16834;BME280;8533;48.426;10.868;2023-06-14T03:58:55;95711.47;;;11.30;87.07
16834;BME280;8533;48.426;10.868;2023-06-14T04:01:21;95687.38;;;11.18;87.16
16834;BME280;8533;48.426;10.868;2023-06-14T04:03:54;95698.63;;;11.23;87.30
16834;BME280;8533;48.426;10.868;2023-06-14T04:06:19;95707.81;;;11.26;88.54
16834;BME280;8533;48.426;10.868;2023-06-14T04:08:45;95728.50;;;11.37;87.68
16834;BME280;8533;48.426;10.868;2023-06-14T04:11:10;95734.03;;;11.41;88.44
16834;BME280;8533;48.426;10.868;2023-06-14T04:13:36;95730.63;;;11.40;88.17
16834;BME280;8533;48.426;10.868;2023-06-14T04:16:01;95669.78;;;10.98;87.16
16834;BME280;8533;48.426;10.868;2023-06-14T04:18:26;95705.41;;;11.19;87.04
16834;BME280;8533;48.426;10.868;2023-06-14T04:20:52;95726.94;;;11.46;85.60
16834;BME280;8533;48.426;10.868;2023-06-14T04:23:18;95744.78;;;11.65;85.96
16834;BME280;8533;48.426;10.868;2023-06-14T04:25:44;95743.47;;;11.72;86.87
16834;BME280;8533;48.426;10.868;2023-06-14T04:28:13;95738.28;;;11.82;85.85
16834;BME280;8533;48.426;10.868;2023-06-14T04:30:41;95723.06;;;11.79;85.34
16834;BME280;8533;48.426;10.868;2023-06-14T04:33:06;95735.91;;;12.01;83.31
16834;BME280;8533;48.426;10.868;2023-06-14T04:35:32;95748.72;;;12.18;84.05
16834;BME280;8533;48.426;10.868;2023-06-14T04:37:58;95679.59;;;11.83;80.49
16834;BME280;8533;48.426;10.868;2023-06-14T04:40:24;95758.41;;;12.38;80.29
16834;BME280;8533;48.426;10.868;2023-06-14T04:42:49;95750.03;;;12.26;80.23
16834;BME280;8533;48.426;10.868;2023-06-14T04:45:16;95744.53;;;12.27;80.11
16834;BME280;8533;48.426;10.868;2023-06-14T04:47:41;95752.38;;;12.42;81.44
16834;BME280;8533;48.426;10.868;2023-06-14T04:50:07;95692.13;;;12.07;81.62
16834;BME280;8533;48.426;10.868;2023-06-14T04:52:33;95723.78;;;12.36;79.57
16834;BME280;8533;48.426;10.868;2023-06-14T04:55:00;95746.31;;;12.52;78.51
16834;BME280;8533;48.426;10.868;2023-06-14T04:57:26;95758.59;;;12.72;79.50
16834;BME280;8533;48.426;10.868;2023-06-14T04:59:52;95747.09;;;12.63;79.33
16834;BME280;8533;48.426;10.868;2023-06-14T05:02:21;95753.13;;;12.63;78.16
16834;BME280;8533;48.426;10.868;2023-06-14T05:04:46;95764.09;;;12.75;79.54
16834;BME280;8533;48.426;10.868;2023-06-14T05:07:12;95715.66;;;12.47;79.11
16834;BME280;8533;48.426;10.868;2023-06-14T05:09:39;95763.78;;;12.92;76.14
16834;BME280;8533;48.426;10.868;2023-06-14T05:12:05;95732.81;;;12.89;74.58
16834;BME280;8533;48.426;10.868;2023-06-14T05:14:33;95647.22;;;12.39;75.81
16834;BME280;8533;48.426;10.868;2023-06-14T05:16:58;95753.47;;;13.11;72.80
16834;BME280;8533;48.426;10.868;2023-06-14T05:19:24;95769.84;;;13.47;70.98
16834;BME280;8533;48.426;10.868;2023-06-14T05:21:50;95761.47;;;13.45;72.16
16834;BME280;8533;48.426;10.868;2023-06-14T05:24:16;95755.13;;;13.51;70.97
16834;BME280;8533;48.426;10.868;2023-06-14T05:26:43;95729.47;;;13.38;69.47
16834;BME280;8533;48.426;10.868;2023-06-14T05:29:08;95728.09;;;13.45;71.41
16834;BME280;8533;48.426;10.868;2023-06-14T05:31:33;95716.75;;;13.50;69.73
16834;BME280;8533;48.426;10.868;2023-06-14T05:33:58;95783.16;;;13.99;68.25
16834;BME280;8533;48.426;10.868;2023-06-14T05:36:24;95720.88;;;13.61;67.71
16834;BME280;8533;48.426;10.868;2023-06-14T05:38:50;95757.19;;;13.93;70.07
16834;BME280;8533;48.426;10.868;2023-06-14T05:41:25;95756.00;;;14.09;68.33
16834;BME280;8533;48.426;10.868;2023-06-14T05:43:51;95777.38;;;14.31;69.88
16834;BME280;8533;48.426;10.868;2023-06-14T05:46:16;95744.66;;;14.13;70.30
16834;BME280;8533;48.426;10.868;2023-06-14T05:48:47;95738.25;;;14.25;67.92
16834;BME280;8533;48.426;10.868;2023-06-14T05:51:12;95609.56;;;13.47;67.70
16834;BME280;8533;48.426;10.868;2023-06-14T05:53:37;95671.47;;;13.92;66.26
16834;BME280;8533;48.426;10.868;2023-06-14T05:56:03;95765.31;;;14.59;67.20
16834;BME280;8533;48.426;10.868;2023-06-14T05:58:28;95770.91;;;14.76;67.91
16834;BME280;8533;48.426;10.868;2023-06-14T06:00:53;95795.00;;;14.88;67.58
16834;BME280;8533;48.426;10.868;2023-06-14T06:03:18;95779.19;;;14.88;67.27
16834;BME280;8533;48.426;10.868;2023-06-14T06:05:44;95775.94;;;14.97;66.02
16834;BME280;8533;48.426;10.868;2023-06-14T06:08:09;95726.72;;;14.73;65.08
16834;BME280;8533;48.426;10.868;2023-06-14T06:10:34;95777.78;;;15.20;65.66
16834;BME280;8533;48.426;10.868;2023-06-14T06:13:00;95648.03;;;14.48;64.17
16834;BME280;8533;48.426;10.868;2023-06-14T06:15:25;95718.94;;;15.06;63.09
16834;BME280;8533;48.426;10.868;2023-06-14T06:17:51;95753.16;;;15.48;64.23
16834;BME280;8533;48.426;10.868;2023-06-14T06:20:16;95709.19;;;15.25;65.84
16834;BME280;8533;48.426;10.868;2023-06-14T06:22:42;95799.22;;;15.93;63.97
16834;BME280;8533;48.426;10.868;2023-06-14T06:25:08;95795.78;;;15.74;63.27
16834;BME280;8533;48.426;10.868;2023-06-14T06:27:33;95771.78;;;15.57;64.76
16834;BME280;8533;48.426;10.868;2023-06-14T06:29:59;95738.59;;;15.56;63.20
16834;BME280;8533;48.426;10.868;2023-06-14T06:32:24;95792.00;;;15.99;66.99
16834;BME280;8533;48.426;10.868;2023-06-14T06:34:50;95800.69;;;16.18;62.41
16834;BME280;8533;48.426;10.868;2023-06-14T06:37:15;95802.78;;;16.35;64.56
16834;BME280;8533;48.426;10.868;2023-06-14T06:39:40;95769.91;;;16.27;61.94
16834;BME280;8533;48.426;10.868;2023-06-14T06:42:06;95795.38;;;16.69;61.15
16834;BME280;8533;48.426;10.868;2023-06-14T06:44:32;95791.25;;;16.91;61.02
16834;BME280;8533;48.426;10.868;2023-06-14T06:46:57;95762.88;;;16.83;59.68
16834;BME280;8533;48.426;10.868;2023-06-14T06:49:23;95782.84;;;17.16;57.77
16834;BME280;8533;48.426;10.868;2023-06-14T06:52:08;95797.50;;;17.49;56.68
16834;BME280;8533;48.426;10.868;2023-06-14T06:54:34;95812.16;;;17.69;55.58
16834;BME280;8533;48.426;10.868;2023-06-14T06:56:59;95809.59;;;17.78;55.92
16834;BME280;8533;48.426;10.868;2023-06-14T06:59:26;95756.50;;;17.61;55.10
16834;BME280;8533;48.426;10.868;2023-06-14T07:01:51;95798.50;;;17.89;56.38
16834;BME280;8533;48.426;10.868;2023-06-14T07:04:17;95789.00;;;18.11;55.99
16834;BME280;8533;48.426;10.868;2023-06-14T07:06:42;95776.91;;;18.18;54.54
16834;BME280;8533;48.426;10.868;2023-06-14T07:09:08;95792.81;;;18.49;53.55
16834;BME280;8533;48.426;10.868;2023-06-14T07:11:38;95802.94;;;18.70;52.89
16834;BME280;8533;48.426;10.868;2023-06-14T07:14:03;95815.00;;;18.84;52.41
16834;BME280;8533;48.426;10.868;2023-06-14T07:16:28;95818.53;;;18.49;53.06
16834;BME280;8533;48.426;10.868;2023-06-14T07:18:53;95813.75;;;18.82;55.00
16834;BME280;8533;48.426;10.868;2023-06-14T07:21:19;95777.75;;;18.81;52.80
16834;BME280;8533;48.426;10.868;2023-06-14T07:23:44;95784.41;;;18.70;52.99
16834;BME280;8533;48.426;10.868;2023-06-14T07:26:10;95809.69;;;18.53;53.29
16834;BME280;8533;48.426;10.868;2023-06-14T07:28:35;95818.59;;;18.80;54.21
16834;BME280;8533;48.426;10.868;2023-06-14T07:31:01;95756.53;;;18.72;53.65
16834;BME280;8533;48.426;10.868;2023-06-14T07:33:26;95823.63;;;19.29;52.80
16834;BME280;8533;48.426;10.868;2023-06-14T07:35:51;95817.16;;;19.53;54.39
16834;BME280;8533;48.426;10.868;2023-06-14T07:38:18;95717.88;;;18.80;51.76
16834;BME280;8533;48.426;10.868;2023-06-14T07:40:43;95826.00;;;19.00;51.97
16834;BME280;8533;48.426;10.868;2023-06-14T07:43:08;95796.91;;;19.17;51.67
16834;BME280;8533;48.426;10.868;2023-06-14T07:45:33;95822.63;;;19.65;50.82
16834;BME280;8533;48.426;10.868;2023-06-14T07:47:59;95786.81;;;19.28;53.71
16834;BME280;8533;48.426;10.868;2023-06-14T07:50:24;95834.69;;;19.97;50.57
16834;BME280;8533;48.426;10.868;2023-06-14T07:52:49;95799.53;;;19.74;51.86
16834;BME280;8533;48.426;10.868;2023-06-14T07:55:15;95818.84;;;19.49;50.84
16834;BME280;8533;48.426;10.868;2023-06-14T07:57:40;95813.75;;;20.12;49.49
16834;BME280;8533;48.426;10.868;2023-06-14T08:00:06;95830.78;;;20.29;50.40
16834;BME280;8533;48.426;10.868;2023-06-14T08:02:32;95826.72;;;20.05;51.28
16834;BME280;8533;48.426;10.868;2023-06-14T08:04:57;95796.28;;;19.94;50.47
16834;BME280;8533;48.426;10.868;2023-06-14T08:07:23;95785.19;;;19.84;51.27
16834;BME280;8533;48.426;10.868;2023-06-14T08:09:49;95834.69;;;20.14;51.11
16834;BME280;8533;48.426;10.868;2023-06-14T08:12:14;95826.72;;;19.88;50.00
16834;BME280;8533;48.426;10.868;2023-06-14T08:14:39;95822.34;;;20.35;49.38
16834;BME280;8533;48.426;10.868;2023-06-14T08:17:05;95846.38;;;20.73;51.22
16834;BME280;8533;48.426;10.868;2023-06-14T08:19:30;95829.66;;;20.64;48.73
16834;BME280;8533;48.426;10.868;2023-06-14T08:21:56;95848.28;;;21.11;48.62
16834;BME280;8533;48.426;10.868;2023-06-14T08:24:22;95820.56;;;21.29;46.39
16834;BME280;8533;48.426;10.868;2023-06-14T08:26:50;95847.38;;;21.74;45.50
16834;BME280;8533;48.426;10.868;2023-06-14T08:29:16;95845.06;;;21.93;45.43
16834;BME280;8533;48.426;10.868;2023-06-14T08:31:41;95814.31;;;22.04;44.65
16834;BME280;8533;48.426;10.868;2023-06-14T08:34:06;95839.16;;;22.50;42.63
16834;BME280;8533;48.426;10.868;2023-06-14T08:36:31;95844.06;;;22.27;44.70
16834;BME280;8533;48.426;10.868;2023-06-14T08:38:57;95842.06;;;22.03;45.35
16834;BME280;8533;48.426;10.868;2023-06-14T08:41:22;95823.97;;;22.09;44.79
16834;BME280;8533;48.426;10.868;2023-06-14T08:43:51;95850.84;;;22.91;42.79
16834;BME280;8533;48.426;10.868;2023-06-14T08:46:17;95837.97;;;22.72;43.31
16834;BME280;8533;48.426;10.868;2023-06-14T08:48:46;95748.34;;;21.39;44.47
16834;BME280;8533;48.426;10.868;2023-06-14T08:51:13;95870.06;;;22.10;45.25
16834;BME280;8533;48.426;10.868;2023-06-14T08:53:41;95854.25;;;22.25;44.10
16834;BME280;8533;48.426;10.868;2023-06-14T08:56:08;95808.81;;;22.42;44.44
16834;BME280;8533;48.426;10.868;2023-06-14T08:58:40;95845.31;;;23.20;43.05
16834;BME280;8533;48.426;10.868;2023-06-14T09:01:10;95800.78;;;22.10;43.73
16834;BME280;8533;48.426;10.868;2023-06-14T09:03:42;95846.22;;;21.84;44.16
16834;BME280;8533;48.426;10.868;2023-06-14T09:06:09;95861.00;;;22.23;44.48
16834;BME280;8533;48.426;10.868;2023-06-14T09:08:40;95858.13;;;22.49;45.43
16834;BME280;8533;48.426;10.868;2023-06-14T09:11:06;95849.22;;;22.12;42.74
16834;BME280;8533;48.426;10.868;2023-06-14T09:13:32;95857.72;;;22.59;44.22
16834;BME280;8533;48.426;10.868;2023-06-14T09:15:57;95861.25;;;22.51;43.61
16834;BME280;8533;48.426;10.868;2023-06-14T09:18:34;95856.53;;;22.35;46.11
16834;BME280;8533;48.426;10.868;2023-06-14T09:20:59;95856.03;;;22.54;44.38
16834;BME280;8533;48.426;10.868;2023-06-14T09:23:24;95850.63;;;22.96;43.65
16834;BME280;8533;48.426;10.868;2023-06-14T09:25:50;95864.38;;;23.31;42.63
16834;BME280;8533;48.426;10.868;2023-06-14T09:28:15;95859.56;;;22.46;41.80
16834;BME280;8533;48.426;10.868;2023-06-14T09:30:40;95680.38;;;21.21;41.46
16834;BME280;8533;48.426;10.868;2023-06-14T09:33:06;95868.28;;;22.88;41.88
16834;BME280;8533;48.426;10.868;2023-06-14T09:35:32;95819.94;;;22.57;42.04
16834;BME280;8533;48.426;10.868;2023-06-14T09:37:58;95864.16;;;23.60;41.43
16834;BME280;8533;48.426;10.868;2023-06-14T09:40:24;95856.72;;;22.84;41.07
16834;BME280;8533;48.426;10.868;2023-06-14T09:42:49;95862.97;;;23.57;39.63
16834;BME280;8533;48.426;10.868;2023-06-14T09:45:15;95844.13;;;23.17;40.41
16834;BME280;8533;48.426;10.868;2023-06-14T09:47:48;95857.47;;;23.30;39.14
16834;BME280;8533;48.426;10.868;2023-06-14T09:50:14;95805.88;;;23.26;40.24
16834;BME280;8533;48.426;10.868;2023-06-14T09:52:41;95849.03;;;23.64;39.21
16834;BME280;8533;48.426;10.868;2023-06-14T09:55:12;95809.72;;;24.29;37.13
16834;BME280;8533;48.426;10.868;2023-06-14T09:57:41;95869.06;;;24.34;39.16
16834;BME280;8533;48.426;10.868;2023-06-14T10:00:07;95837.03;;;23.58;37.35
16834;BME280;8533;48.426;10.868;2023-06-14T10:02:37;95872.66;;;23.50;37.72
16834;BME280;8533;48.426;10.868;2023-06-14T10:05:08;95849.25;;;23.83;37.37
16834;BME280;8533;48.426;10.868;2023-06-14T10:10:43;95824.09;;;23.24;38.78
16834;BME280;8533;48.426;10.868;2023-06-14T10:13:10;95857.28;;;23.71;38.88
16834;BME280;8533;48.426;10.868;2023-06-14T10:16:00;95859.16;;;24.35;37.50
16834;BME280;8533;48.426;10.868;2023-06-14T10:21:18;95665.28;;;23.70;35.75
16834;BME280;8533;48.426;10.868;2023-06-14T10:23:47;95792.63;;;24.06;35.70
16834;BME280;8533;48.426;10.868;2023-06-14T10:26:23;95862.78;;;24.98;34.16
16834;BME280;8533;48.426;10.868;2023-06-14T10:29:00;95860.56;;;25.16;33.24
16834;BME280;8533;48.426;10.868;2023-06-14T10:31:47;95669.06;;;22.31;34.51
16834;BME280;8533;48.426;10.868;2023-06-14T10:34:22;95742.69;;;21.82;36.42
16834;BME280;8533;48.426;10.868;2023-06-14T10:37:00;95643.44;;;21.19;35.61
16834;BME280;8533;48.426;10.868;2023-06-14T10:39:27;95836.28;;;21.93;36.58
16834;BME280;8533;48.426;10.868;2023-06-14T10:41:54;95851.00;;;22.40;35.84
16834;BME280;8533;48.426;10.868;2023-06-14T10:46:55;95829.31;;;23.81;35.21
16834;BME280;8533;48.426;10.868;2023-06-14T10:49:38;95862.19;;;23.57;33.98
16834;BME280;8533;48.426;10.868;2023-06-14T10:52:08;95843.22;;;23.86;34.98
16834;BME280;8533;48.426;10.868;2023-06-14T10:55:14;95846.09;;;23.93;34.89
16834;BME280;8533;48.426;10.868;2023-06-14T10:57:45;95786.06;;;23.63;33.91
16834;BME280;8533;48.426;10.868;2023-06-14T11:00:12;95849.63;;;24.10;34.19
16834;BME280;8533;48.426;10.868;2023-06-14T11:05:26;95745.28;;;24.34;33.84
16834;BME280;8533;48.426;10.868;2023-06-14T11:10:54;95671.25;;;23.51;32.99
16834;BME280;8533;48.426;10.868;2023-06-14T11:13:25;95575.47;;;23.09;32.13
16834;BME280;8533;48.426;10.868;2023-06-14T11:15:50;95854.03;;;25.61;31.59
16834;BME280;8533;48.426;10.868;2023-06-14T11:18:18;95855.28;;;26.17;32.62
16834;BME280;8533;48.426;10.868;2023-06-14T11:20:46;95866.69;;;25.17;33.68
16834;BME280;8533;48.426;10.868;2023-06-14T11:23:11;95839.22;;;24.60;32.65
16834;BME280;8533;48.426;10.868;2023-06-14T11:25:36;95792.84;;;25.16;33.41
16834;BME280;8533;48.426;10.868;2023-06-14T11:28:02;95843.56;;;25.08;31.82
16834;BME280;8533;48.426;10.868;2023-06-14T11:30:27;95819.47;;;24.65;31.83
16834;BME280;8533;48.426;10.868;2023-06-14T11:32:53;95846.25;;;24.37;33.35
16834;BME280;8533;48.426;10.868;2023-06-14T11:35:21;95829.72;;;25.06;32.46
16834;BME280;8533;48.426;10.868;2023-06-14T11:37:48;95835.44;;;25.36;32.46
16834;BME280;8533;48.426;10.868;2023-06-14T11:40:14;95841.34;;;24.83;33.16
16834;BME280;8533;48.426;10.868;2023-06-14T11:42:40;95816.69;;;25.36;31.64
16834;BME280;8533;48.426;10.868;2023-06-14T11:45:10;95843.97;;;25.42;32.18
16834;BME280;8533;48.426;10.868;2023-06-14T11:47:37;95828.22;;;25.56;31.63
16834;BME280;8533;48.426;10.868;2023-06-14T11:50:04;95848.28;;;25.46;32.39
16834;BME280;8533;48.426;10.868;2023-06-14T11:52:30;95805.38;;;25.43;31.71
16834;BME280;8533;48.426;10.868;2023-06-14T11:54:56;95667.50;;;25.37;31.25
16834;BME280;8533;48.426;10.868;2023-06-14T11:57:22;95835.84;;;26.24;30.32
16834;BME280;8533;48.426;10.868;2023-06-14T11:59:48;95834.31;;;25.88;32.85
16834;BME280;8533;48.426;10.868;2023-06-14T12:02:15;95833.00;;;25.31;31.63
16834;BME280;8533;48.426;10.868;2023-06-14T12:04:44;95828.94;;;25.06;33.86
16834;BME280;8533;48.426;10.868;2023-06-14T12:07:15;95823.47;;;24.87;32.24
16834;BME280;8533;48.426;10.868;2023-06-14T12:12:28;95824.97;;;25.98;31.32
16834;BME280;8533;48.426;10.868;2023-06-14T12:14:55;95831.69;;;25.57;31.46
16834;BME280;8533;48.426;10.868;2023-06-14T12:17:21;95835.69;;;25.16;31.49
16834;BME280;8533;48.426;10.868;2023-06-14T12:19:46;95775.03;;;24.32;32.03
16834;BME280;8533;48.426;10.868;2023-06-14T12:22:13;95837.97;;;24.42;32.70
16834;BME280;8533;48.426;10.868;2023-06-14T12:24:39;95816.09;;;24.52;32.10
16834;BME280;8533;48.426;10.868;2023-06-14T12:27:05;95814.69;;;24.86;31.91
16834;BME280;8533;48.426;10.868;2023-06-14T12:29:31;95829.91;;;25.14;31.39
16834;BME280;8533;48.426;10.868;2023-06-14T12:31:57;95829.25;;;25.83;31.27
16834;BME280;8533;48.426;10.868;2023-06-14T12:34:26;95834.03;;;25.42;30.80
16834;BME280;8533;48.426;10.868;2023-06-14T12:36:55;95803.78;;;25.58;30.95
16834;BME280;8533;48.426;10.868;2023-06-14T12:39:20;95812.09;;;25.68;30.90
16834;BME280;8533;48.426;10.868;2023-06-14T12:41:46;95805.63;;;25.54;30.73
16834;BME280;8533;48.426;10.868;2023-06-14T12:44:13;95833.41;;;25.80;30.71
16834;BME280;8533;48.426;10.868;2023-06-14T12:46:39;95792.63;;;25.05;30.88
16834;BME280;8533;48.426;10.868;2023-06-14T12:49:05;95768.28;;;24.66;31.63
16834;BME280;8533;48.426;10.868;2023-06-14T12:51:32;95779.31;;;24.49;30.98
16834;BME280;8533;48.426;10.868;2023-06-14T12:53:57;95846.75;;;25.30;31.89
16834;BME280;8533;48.426;10.868;2023-06-14T12:56:22;95793.56;;;25.28;30.60
16834;BME280;8533;48.426;10.868;2023-06-14T12:58:48;95835.53;;;26.26;30.30
16834;BME280;8533;48.426;10.868;2023-06-14T13:01:13;95819.78;;;25.38;30.74
16834;BME280;8533;48.426;10.868;2023-06-14T13:03:38;95835.16;;;25.73;29.12
16834;BME280;8533;48.426;10.868;2023-06-14T13:06:04;95828.50;;;25.67;30.58
16834;BME280;8533;48.426;10.868;2023-06-14T13:08:29;95803.28;;;25.87;30.26
16834;BME280;8533;48.426;10.868;2023-06-14T13:10:55;95844.84;;;26.32;32.20
16834;BME280;8533;48.426;10.868;2023-06-14T13:13:20;95838.38;;;25.98;32.26
16834;BME280;8533;48.426;10.868;2023-06-14T13:15:46;95821.69;;;25.89;32.32
16834;BME280;8533;48.426;10.868;2023-06-14T13:18:12;95819.16;;;25.96;31.95
16834;BME280;8533;48.426;10.868;2023-06-14T13:20:41;95834.81;;;25.43;32.17